sensor_id;sensor_type;location;lat;lon;timestamp;temperature;humidity
17565;DHT22;62994;52.126;5.596;2024-01-06T00:01:10;7.50;99.90
17565;DHT22;62994;52.126;5.596;2024-01-06T00:03:37;7.50;99.90
17565;DHT22;62994;52.126;5.596;2024-01-06T00:06:06;7.50;99.90
17565;DHT22;62994;52.126;5.596;2024-01-06T00:08:33;7.50;99.90
17565;DHT22;62994;52.126;5.596;2024-01-06T00:11:01;7.50;99.90
17565;DHT22;62994;52.126;5.596;2024-01-06T00:13:31;7.40;99.90
17565;DHT22;62994;52.126;5.596;2024-01-06T00:16:03;7.40;99.90
17565;DHT22;62994;52.126;5.596;2024-01-06T00:18:32;7.40;99.90
17565;DHT22;62994;52.126;5.596;2024-01-06T00:21:01;7.40;99.90
17565;DHT22;62994;52.126;5.596;2024-01-06T00:23:33;7.40;99.90
17565;DHT22;62994;52.126;5.596;2024-01-06T00:26:00;7.40;99.90
17565;DHT22;62994;52.126;5.596;2024-01-06T00:28:28;7.40;99.90
17565;DHT22;62994;52.126;5.596;2024-01-06T00:30:59;7.40;99.90
17565;DHT22;62994;52.126;5.596;2024-01-06T00:33:26;7.30;99.90
17565;DHT22;62994;52.126;5.596;2024-01-06T00:35:54;7.30;99.90
17565;DHT22;62994;52.126;5.596;2024-01-06T00:38:21;7.30;99.90
17565;DHT22;62994;52.126;5.596;2024-01-06T00:40:49;7.30;99.90
17565;DHT22;62994;52.126;5.596;2024-01-06T00:43:21;7.30;99.90
17565;DHT22;62994;52.126;5.596;2024-01-06T00:45:50;7.30;99.90
17565;DHT22;62994;52.126;5.596;2024-01-06T00:48:17;7.30;99.90
17565;DHT22;62994;52.126;5.596;2024-01-06T00:50:44;7.20;99.90
17565;DHT22;62994;52.126;5.596;2024-01-06T00:53:15;7.20;99.90
17565;DHT22;62994;52.126;5.596;2024-01-06T00:55:43;7.20;99.90
17565;DHT22;62994;52.126;5.596;2024-01-06T00:58:11;7.10;99.90
17565;DHT22;62994;52.126;5.596;2024-01-06T01:00:38;7.10;99.90
17565;DHT22;62994;52.126;5.596;2024-01-06T01:03:07;7.10;99.90
17565;DHT22;62994;52.126;5.596;2024-01-06T01:05:34;7.10;99.90
17565;DHT22;62994;52.126;5.596;2024-01-06T01:08:03;7.10;99.90
17565;DHT22;62994;52.126;5.596;2024-01-06T01:10:40;7.10;99.90
17565;DHT22;62994;52.126;5.596;2024-01-06T01:13:07;7.10;99.90
17565;DHT22;62994;52.126;5.596;2024-01-06T01:15:36;7.10;99.90
17565;DHT22;62994;52.126;5.596;2024-01-06T01:18:03;7.00;99.90
17565;DHT22;62994;52.126;5.596;2024-01-06T01:20:30;7.00;99.90
17565;DHT22;62994;52.126;5.596;2024-01-06T01:22:57;7.00;99.90
17565;DHT22;62994;52.126;5.596;2024-01-06T01:25:26;7.00;99.90
17565;DHT22;62994;52.126;5.596;2024-01-06T01:27:55;7.00;99.90
17565;DHT22;62994;52.126;5.596;2024-01-06T01:30:22;6.90;99.90
17565;DHT22;62994;52.126;5.596;2024-01-06T01:32:53;6.90;99.90
17565;DHT22;62994;52.126;5.596;2024-01-06T01:35:20;6.90;99.90
17565;DHT22;62994;52.126;5.596;2024-01-06T01:37:47;7.00;99.90
17565;DHT22;62994;52.126;5.596;2024-01-06T01:40:14;6.90;99.90
17565;DHT22;62994;52.126;5.596;2024-01-06T01:42:43;6.90;99.90
17565;DHT22;62994;52.126;5.596;2024-01-06T01:45:10;6.90;99.90
17565;DHT22;62994;52.126;5.596;2024-01-06T01:47:37;6.80;99.90
17565;DHT22;62994;52.126;5.596;2024-01-06T01:50:10;6.90;99.90
17565;DHT22;62994;52.126;5.596;2024-01-06T01:52:41;6.80;99.90
17565;DHT22;62994;52.126;5.596;2024-01-06T01:55:08;6.90;99.90
17565;DHT22;62994;52.126;5.596;2024-01-06T01:57:37;6.90;99.90
17565;DHT22;62994;52.126;5.596;2024-01-06T02:00:08;6.80;99.90
17565;DHT22;62994;52.126;5.596;2024-01-06T02:02:35;6.90;99.90
17565;DHT22;62994;52.126;5.596;2024-01-06T02:05:03;6.80;99.90
17565;DHT22;62994;52.126;5.596;2024-01-06T02:07:31;6.80;99.90
17565;DHT22;62994;52.126;5.596;2024-01-06T02:10:08;6.80;99.90
17565;DHT22;62994;52.126;5.596;2024-01-06T02:12:44;6.80;99.90
17565;DHT22;62994;52.126;5.596;2024-01-06T02:15:12;6.90;99.90
17565;DHT22;62994;52.126;5.596;2024-01-06T02:17:40;7.00;99.90
17565;DHT22;62994;52.126;5.596;2024-01-06T02:20:08;7.00;99.90
17565;DHT22;62994;52.126;5.596;2024-01-06T02:22:38;7.00;99.90
17565;DHT22;62994;52.126;5.596;2024-01-06T02:25:09;7.00;99.90
17565;DHT22;62994;52.126;5.596;2024-01-06T02:27:40;6.90;99.90
17565;DHT22;62994;52.126;5.596;2024-01-06T02:30:08;6.90;99.90
17565;DHT22;62994;52.126;5.596;2024-01-06T02:32:40;6.90;99.90
17565;DHT22;62994;52.126;5.596;2024-01-06T02:35:09;6.80;99.90
17565;DHT22;62994;52.126;5.596;2024-01-06T02:37:37;6.80;99.90
17565;DHT22;62994;52.126;5.596;2024-01-06T02:40:05;6.80;99.90
17565;DHT22;62994;52.126;5.596;2024-01-06T02:42:34;6.80;99.90
17565;DHT22;62994;52.126;5.596;2024-01-06T02:45:01;6.70;99.90
17565;DHT22;62994;52.126;5.596;2024-01-06T02:47:30;6.70;99.90
17565;DHT22;62994;52.126;5.596;2024-01-06T02:49:58;6.70;99.90
17565;DHT22;62994;52.126;5.596;2024-01-06T02:52:25;6.70;99.90
17565;DHT22;62994;52.126;5.596;2024-01-06T02:54:54;6.70;99.90
17565;DHT22;62994;52.126;5.596;2024-01-06T02:57:20;6.70;99.90
17565;DHT22;62994;52.126;5.596;2024-01-06T02:59:48;6.70;99.90
17565;DHT22;62994;52.126;5.596;2024-01-06T03:02:19;6.70;99.90
17565;DHT22;62994;52.126;5.596;2024-01-06T03:04:51;6.70;99.90
17565;DHT22;62994;52.126;5.596;2024-01-06T03:07:20;6.70;99.90
17565;DHT22;62994;52.126;5.596;2024-01-06T03:09:49;6.70;99.90
17565;DHT22;62994;52.126;5.596;2024-01-06T03:12:17;6.70;99.90
17565;DHT22;62994;52.126;5.596;2024-01-06T03:14:44;6.70;99.90
17565;DHT22;62994;52.126;5.596;2024-01-06T03:17:16;6.70;99.90
17565;DHT22;62994;52.126;5.596;2024-01-06T03:19:49;6.70;99.90
17565;DHT22;62994;52.126;5.596;2024-01-06T03:22:21;6.70;99.90
17565;DHT22;62994;52.126;5.596;2024-01-06T03:24:49;6.70;99.90
17565;DHT22;62994;52.126;5.596;2024-01-06T03:27:18;6.60;99.90
17565;DHT22;62994;52.126;5.596;2024-01-06T03:30:00;6.60;99.90
17565;DHT22;62994;52.126;5.596;2024-01-06T03:32:29;6.70;99.90
17565;DHT22;62994;52.126;5.596;2024-01-06T03:34:58;6.70;99.90
17565;DHT22;62994;52.126;5.596;2024-01-06T03:37:27;6.70;99.90
17565;DHT22;62994;52.126;5.596;2024-01-06T03:39:58;6.60;99.90
17565;DHT22;62994;52.126;5.596;2024-01-06T03:42:27;6.60;99.90
17565;DHT22;62994;52.126;5.596;2024-01-06T03:44:54;6.60;99.90
17565;DHT22;62994;52.126;5.596;2024-01-06T03:47:26;6.50;99.90
17565;DHT22;62994;52.126;5.596;2024-01-06T03:49:55;6.50;99.90
17565;DHT22;62994;52.126;5.596;2024-01-06T03:52:23;6.50;99.90
17565;DHT22;62994;52.126;5.596;2024-01-06T03:54:50;6.40;99.90
17565;DHT22;62994;52.126;5.596;2024-01-06T03:57:19;6.40;99.90
17565;DHT22;62994;52.126;5.596;2024-01-06T03:59:51;6.40;99.90
17565;DHT22;62994;52.126;5.596;2024-01-06T04:02:20;6.40;99.90
17565;DHT22;62994;52.126;5.596;2024-01-06T04:04:46;6.40;99.90
17565;DHT22;62994;52.126;5.596;2024-01-06T04:07:17;6.30;99.90
17565;DHT22;62994;52.126;5.596;2024-01-06T04:09:44;6.30;99.90
17565;DHT22;62994;52.126;5.596;2024-01-06T04:12:17;6.40;99.90
17565;DHT22;62994;52.126;5.596;2024-01-06T04:14:44;6.30;99.90
17565;DHT22;62994;52.126;5.596;2024-01-06T04:17:12;6.30;99.90
17565;DHT22;62994;52.126;5.596;2024-01-06T04:19:39;6.20;99.90
17565;DHT22;62994;52.126;5.596;2024-01-06T04:22:06;6.20;99.90
17565;DHT22;62994;52.126;5.596;2024-01-06T04:24:33;6.20;99.90
17565;DHT22;62994;52.126;5.596;2024-01-06T04:27:05;6.40;99.90
17565;DHT22;62994;52.126;5.596;2024-01-06T04:29:34;6.40;99.90
17565;DHT22;62994;52.126;5.596;2024-01-06T04:32:03;6.40;99.90
17565;DHT22;62994;52.126;5.596;2024-01-06T04:34:31;6.20;99.90
17565;DHT22;62994;52.126;5.596;2024-01-06T04:36:58;6.20;99.90
17565;DHT22;62994;52.126;5.596;2024-01-06T04:39:27;6.10;99.90
17565;DHT22;62994;52.126;5.596;2024-01-06T04:41:56;6.10;99.90
17565;DHT22;62994;52.126;5.596;2024-01-06T04:44:24;6.00;99.90
17565;DHT22;62994;52.126;5.596;2024-01-06T04:46:55;6.00;99.90
17565;DHT22;62994;52.126;5.596;2024-01-06T04:49:24;6.00;99.90
17565;DHT22;62994;52.126;5.596;2024-01-06T04:51:52;6.00;99.90
17565;DHT22;62994;52.126;5.596;2024-01-06T04:54:19;5.90;99.90
17565;DHT22;62994;52.126;5.596;2024-01-06T04:56:46;5.90;99.90
17565;DHT22;62994;52.126;5.596;2024-01-06T04:59:15;5.90;99.90
17565;DHT22;62994;52.126;5.596;2024-01-06T05:01:44;5.90;99.90
17565;DHT22;62994;52.126;5.596;2024-01-06T05:04:13;5.90;99.90
17565;DHT22;62994;52.126;5.596;2024-01-06T05:06:44;5.80;99.90
17565;DHT22;62994;52.126;5.596;2024-01-06T05:09:15;5.80;99.90
17565;DHT22;62994;52.126;5.596;2024-01-06T05:11:43;5.70;99.90
17565;DHT22;62994;52.126;5.596;2024-01-06T05:14:10;5.80;99.90
17565;DHT22;62994;52.126;5.596;2024-01-06T05:16:37;5.70;99.90
17565;DHT22;62994;52.126;5.596;2024-01-06T05:19:06;5.60;99.90
17565;DHT22;62994;52.126;5.596;2024-01-06T05:21:33;5.70;99.90
17565;DHT22;62994;52.126;5.596;2024-01-06T05:24:05;5.70;99.90
17565;DHT22;62994;52.126;5.596;2024-01-06T05:26:33;5.70;99.90
17565;DHT22;62994;52.126;5.596;2024-01-06T05:29:01;5.70;99.90
17565;DHT22;62994;52.126;5.596;2024-01-06T05:31:28;5.70;99.90
17565;DHT22;62994;52.126;5.596;2024-01-06T05:34:01;5.70;99.90
17565;DHT22;62994;52.126;5.596;2024-01-06T05:36:28;5.70;99.90
17565;DHT22;62994;52.126;5.596;2024-01-06T05:38:59;5.70;99.90
17565;DHT22;62994;52.126;5.596;2024-01-06T05:41:28;5.70;99.90
17565;DHT22;62994;52.126;5.596;2024-01-06T05:43:57;5.60;99.90
17565;DHT22;62994;52.126;5.596;2024-01-06T05:46:24;5.50;99.90
17565;DHT22;62994;52.126;5.596;2024-01-06T05:48:51;5.50;99.90
17565;DHT22;62994;52.126;5.596;2024-01-06T05:51:18;5.50;99.90
17565;DHT22;62994;52.126;5.596;2024-01-06T05:53:45;5.40;99.90
17565;DHT22;62994;52.126;5.596;2024-01-06T05:56:22;5.40;99.90
17565;DHT22;62994;52.126;5.596;2024-01-06T05:58:51;5.40;99.90
17565;DHT22;62994;52.126;5.596;2024-01-06T06:01:20;5.30;99.90
17565;DHT22;62994;52.126;5.596;2024-01-06T06:03:47;5.30;99.90
17565;DHT22;62994;52.126;5.596;2024-01-06T06:06:15;5.30;99.90
17565;DHT22;62994;52.126;5.596;2024-01-06T06:08:44;5.20;99.90
17565;DHT22;62994;52.126;5.596;2024-01-06T06:11:11;5.30;99.90
17565;DHT22;62994;52.126;5.596;2024-01-06T06:13:41;5.30;99.90
17565;DHT22;62994;52.126;5.596;2024-01-06T06:16:09;5.20;99.90
17565;DHT22;62994;52.126;5.596;2024-01-06T06:18:39;5.20;99.90
17565;DHT22;62994;52.126;5.596;2024-01-06T06:21:06;5.20;99.90
17565;DHT22;62994;52.126;5.596;2024-01-06T06:23:34;5.20;99.90
17565;DHT22;62994;52.126;5.596;2024-01-06T06:26:07;5.20;99.90
17565;DHT22;62994;52.126;5.596;2024-01-06T06:28:34;5.20;99.90
17565;DHT22;62994;52.126;5.596;2024-01-06T06:31:02;5.20;99.90
17565;DHT22;62994;52.126;5.596;2024-01-06T06:33:29;5.20;99.90
17565;DHT22;62994;52.126;5.596;2024-01-06T06:36:00;5.20;99.90
17565;DHT22;62994;52.126;5.596;2024-01-06T06:38:28;5.20;99.90
17565;DHT22;62994;52.126;5.596;2024-01-06T06:40:55;5.20;99.90
17565;DHT22;62994;52.126;5.596;2024-01-06T06:43:24;5.20;99.90
17565;DHT22;62994;52.126;5.596;2024-01-06T06:45:51;5.20;99.90
17565;DHT22;62994;52.126;5.596;2024-01-06T06:48:18;5.30;99.90
17565;DHT22;62994;52.126;5.596;2024-01-06T06:50:47;5.30;99.90
17565;DHT22;62994;52.126;5.596;2024-01-06T06:53:15;5.20;99.90
17565;DHT22;62994;52.126;5.596;2024-01-06T06:55:43;5.10;99.90
17565;DHT22;62994;52.126;5.596;2024-01-06T06:58:09;5.20;99.90
17565;DHT22;62994;52.126;5.596;2024-01-06T07:00:36;5.20;99.90
17565;DHT22;62994;52.126;5.596;2024-01-06T07:03:09;5.20;99.90
17565;DHT22;62994;52.126;5.596;2024-01-06T07:05:41;5.20;99.90
17565;DHT22;62994;52.126;5.596;2024-01-06T07:08:13;5.20;99.90
17565;DHT22;62994;52.126;5.596;2024-01-06T07:10:42;5.20;99.90
17565;DHT22;62994;52.126;5.596;2024-01-06T07:13:10;5.20;99.90
17565;DHT22;62994;52.126;5.596;2024-01-06T07:15:37;5.20;99.90
17565;DHT22;62994;52.126;5.596;2024-01-06T07:18:11;5.10;99.90
17565;DHT22;62994;52.126;5.596;2024-01-06T07:20:39;5.10;99.90
17565;DHT22;62994;52.126;5.596;2024-01-06T07:23:08;5.00;99.90
17565;DHT22;62994;52.126;5.596;2024-01-06T07:25:45;5.00;99.90
17565;DHT22;62994;52.126;5.596;2024-01-06T07:28:12;5.00;99.90
17565;DHT22;62994;52.126;5.596;2024-01-06T07:30:40;5.00;99.90
17565;DHT22;62994;52.126;5.596;2024-01-06T07:33:08;5.10;99.90
17565;DHT22;62994;52.126;5.596;2024-01-06T07:35:37;5.10;99.90
17565;DHT22;62994;52.126;5.596;2024-01-06T07:38:08;5.10;99.90
17565;DHT22;62994;52.126;5.596;2024-01-06T07:40:35;5.10;99.90
17565;DHT22;62994;52.126;5.596;2024-01-06T07:43:04;5.10;99.90
17565;DHT22;62994;52.126;5.596;2024-01-06T07:45:36;5.00;99.90
17565;DHT22;62994;52.126;5.596;2024-01-06T07:48:05;5.00;99.90
17565;DHT22;62994;52.126;5.596;2024-01-06T07:50:37;5.00;99.90
17565;DHT22;62994;52.126;5.596;2024-01-06T07:53:04;5.00;99.90
17565;DHT22;62994;52.126;5.596;2024-01-06T07:55:31;5.00;99.90
17565;DHT22;62994;52.126;5.596;2024-01-06T07:58:05;5.00;99.90
17565;DHT22;62994;52.126;5.596;2024-01-06T08:00:32;5.00;99.90
17565;DHT22;62994;52.126;5.596;2024-01-06T08:03:02;4.90;99.90
17565;DHT22;62994;52.126;5.596;2024-01-06T08:05:31;5.00;99.90
17565;DHT22;62994;52.126;5.596;2024-01-06T08:07:58;5.00;99.90
17565;DHT22;62994;52.126;5.596;2024-01-06T08:10:27;5.00;99.90
17565;DHT22;62994;52.126;5.596;2024-01-06T08:12:54;5.00;99.90
17565;DHT22;62994;52.126;5.596;2024-01-06T08:15:22;5.10;99.90
17565;DHT22;62994;52.126;5.596;2024-01-06T08:17:49;5.10;99.90
17565;DHT22;62994;52.126;5.596;2024-01-06T08:20:22;5.10;99.90
17565;DHT22;62994;52.126;5.596;2024-01-06T08:22:55;5.20;99.90
17565;DHT22;62994;52.126;5.596;2024-01-06T08:25:27;5.20;99.90
17565;DHT22;62994;52.126;5.596;2024-01-06T08:27:59;5.20;99.90
17565;DHT22;62994;52.126;5.596;2024-01-06T08:30:27;5.20;99.90
17565;DHT22;62994;52.126;5.596;2024-01-06T08:32:54;5.20;99.90
17565;DHT22;62994;52.126;5.596;2024-01-06T08:35:22;5.20;99.90
17565;DHT22;62994;52.126;5.596;2024-01-06T08:37:49;5.10;99.90
17565;DHT22;62994;52.126;5.596;2024-01-06T08:40:16;5.20;99.90
17565;DHT22;62994;52.126;5.596;2024-01-06T08:42:43;5.20;99.90
17565;DHT22;62994;52.126;5.596;2024-01-06T08:45:10;5.20;99.90
17565;DHT22;62994;52.126;5.596;2024-01-06T08:47:39;5.20;99.90
17565;DHT22;62994;52.126;5.596;2024-01-06T08:50:07;5.20;99.90
17565;DHT22;62994;52.126;5.596;2024-01-06T08:52:34;5.30;99.90
17565;DHT22;62994;52.126;5.596;2024-01-06T08:55:07;5.20;99.90
17565;DHT22;62994;52.126;5.596;2024-01-06T08:57:34;5.20;99.90
17565;DHT22;62994;52.126;5.596;2024-01-06T09:00:01;5.20;99.90
17565;DHT22;62994;52.126;5.596;2024-01-06T09:02:29;5.30;99.90
17565;DHT22;62994;52.126;5.596;2024-01-06T09:04:57;5.30;99.90
17565;DHT22;62994;52.126;5.596;2024-01-06T09:07:24;5.30;99.90
17565;DHT22;62994;52.126;5.596;2024-01-06T09:09:52;5.30;99.90
17565;DHT22;62994;52.126;5.596;2024-01-06T09:12:19;5.30;99.90
17565;DHT22;62994;52.126;5.596;2024-01-06T09:14:45;5.30;99.90
17565;DHT22;62994;52.126;5.596;2024-01-06T09:17:13;5.30;99.90
17565;DHT22;62994;52.126;5.596;2024-01-06T09:19:40;5.40;99.90
17565;DHT22;62994;52.126;5.596;2024-01-06T09:22:09;5.40;99.90
17565;DHT22;62994;52.126;5.596;2024-01-06T09:24:43;5.40;99.90
17565;DHT22;62994;52.126;5.596;2024-01-06T09:27:10;5.40;99.90
17565;DHT22;62994;52.126;5.596;2024-01-06T09:29:40;5.50;99.90
17565;DHT22;62994;52.126;5.596;2024-01-06T09:32:09;5.50;99.90
17565;DHT22;62994;52.126;5.596;2024-01-06T09:34:36;5.50;99.90
17565;DHT22;62994;52.126;5.596;2024-01-06T09:37:04;5.50;99.90
17565;DHT22;62994;52.126;5.596;2024-01-06T09:39:38;5.50;99.90
17565;DHT22;62994;52.126;5.596;2024-01-06T09:42:06;5.40;99.90
17565;DHT22;62994;52.126;5.596;2024-01-06T09:44:38;5.40;99.90
17565;DHT22;62994;52.126;5.596;2024-01-06T09:47:19;5.40;99.90
17565;DHT22;62994;52.126;5.596;2024-01-06T09:49:50;5.40;99.90
17565;DHT22;62994;52.126;5.596;2024-01-06T09:52:27;5.40;99.90
17565;DHT22;62994;52.126;5.596;2024-01-06T09:55:00;5.40;99.90
17565;DHT22;62994;52.126;5.596;2024-01-06T09:57:33;5.40;99.90
17565;DHT22;62994;52.126;5.596;2024-01-06T10:00:01;5.40;99.90
17565;DHT22;62994;52.126;5.596;2024-01-06T10:02:29;5.40;99.90
17565;DHT22;62994;52.126;5.596;2024-01-06T10:04:57;5.40;99.90
17565;DHT22;62994;52.126;5.596;2024-01-06T10:07:26;5.40;99.90
17565;DHT22;62994;52.126;5.596;2024-01-06T10:09:55;5.40;99.90
17565;DHT22;62994;52.126;5.596;2024-01-06T10:12:24;5.40;99.90
17565;DHT22;62994;52.126;5.596;2024-01-06T10:14:52;5.40;99.90
17565;DHT22;62994;52.126;5.596;2024-01-06T10:17:19;5.40;99.90
17565;DHT22;62994;52.126;5.596;2024-01-06T10:19:46;5.40;99.90
17565;DHT22;62994;52.126;5.596;2024-01-06T10:22:18;5.40;99.90
17565;DHT22;62994;52.126;5.596;2024-01-06T10:24:51;5.50;99.90
17565;DHT22;62994;52.126;5.596;2024-01-06T10:27:24;5.40;99.90
17565;DHT22;62994;52.126;5.596;2024-01-06T10:29:54;5.40;99.90
17565;DHT22;62994;52.126;5.596;2024-01-06T10:32:23;5.40;99.90
17565;DHT22;62994;52.126;5.596;2024-01-06T10:34:54;5.40;99.90
17565;DHT22;62994;52.126;5.596;2024-01-06T10:37:22;5.40;99.90
17565;DHT22;62994;52.126;5.596;2024-01-06T10:40:06;5.40;99.90
17565;DHT22;62994;52.126;5.596;2024-01-06T10:42:35;5.40;99.90
17565;DHT22;62994;52.126;5.596;2024-01-06T10:45:06;5.40;99.90
17565;DHT22;62994;52.126;5.596;2024-01-06T10:47:37;5.40;99.90
17565;DHT22;62994;52.126;5.596;2024-01-06T10:50:07;5.40;99.90
17565;DHT22;62994;52.126;5.596;2024-01-06T10:52:38;5.50;99.90
17565;DHT22;62994;52.126;5.596;2024-01-06T10:55:05;5.40;99.90
17565;DHT22;62994;52.126;5.596;2024-01-06T10:57:34;5.50;99.90
17565;DHT22;62994;52.126;5.596;2024-01-06T11:00:03;5.50;99.90
17565;DHT22;62994;52.126;5.596;2024-01-06T11:02:31;5.50;99.90
17565;DHT22;62994;52.126;5.596;2024-01-06T11:05:00;5.50;99.90
17565;DHT22;62994;52.126;5.596;2024-01-06T11:07:28;5.60;99.90
17565;DHT22;62994;52.126;5.596;2024-01-06T11:10:10;5.60;99.90
17565;DHT22;62994;52.126;5.596;2024-01-06T11:12:40;5.60;99.90
17565;DHT22;62994;52.126;5.596;2024-01-06T11:15:40;5.60;99.90
17565;DHT22;62994;52.126;5.596;2024-01-06T11:18:10;5.60;99.90
17565;DHT22;62994;52.126;5.596;2024-01-06T11:21:26;5.60;99.90
17565;DHT22;62994;52.126;5.596;2024-01-06T11:24:18;5.60;99.90
17565;DHT22;62994;52.126;5.596;2024-01-06T11:26:55;5.60;99.90
17565;DHT22;62994;52.126;5.596;2024-01-06T11:29:24;5.60;99.90
17565;DHT22;62994;52.126;5.596;2024-01-06T11:32:18;5.60;99.90
17565;DHT22;62994;52.126;5.596;2024-01-06T11:35:07;5.60;99.90
17565;DHT22;62994;52.126;5.596;2024-01-06T11:37:53;5.60;99.90
17565;DHT22;62994;52.126;5.596;2024-01-06T11:40:39;5.50;99.90
17565;DHT22;62994;52.126;5.596;2024-01-06T11:43:09;5.50;99.90
17565;DHT22;62994;52.126;5.596;2024-01-06T11:45:40;5.50;99.90
17565;DHT22;62994;52.126;5.596;2024-01-06T11:48:11;5.50;99.90
17565;DHT22;62994;52.126;5.596;2024-01-06T11:50:39;5.50;99.90
17565;DHT22;62994;52.126;5.596;2024-01-06T11:53:12;5.60;99.90
17565;DHT22;62994;52.126;5.596;2024-01-06T11:55:39;5.60;99.90
17565;DHT22;62994;52.126;5.596;2024-01-06T11:58:22;5.60;99.90
17565;DHT22;62994;52.126;5.596;2024-01-06T12:01:05;5.60;99.90
17565;DHT22;62994;52.126;5.596;2024-01-06T12:03:32;5.60;99.90
17565;DHT22;62994;52.126;5.596;2024-01-06T12:06:00;5.60;99.90
17565;DHT22;62994;52.126;5.596;2024-01-06T12:08:28;5.60;99.90
17565;DHT22;62994;52.126;5.596;2024-01-06T12:11:04;5.60;99.90
17565;DHT22;62994;52.126;5.596;2024-01-06T12:13:46;5.60;99.90
17565;DHT22;62994;52.126;5.596;2024-01-06T12:16:29;5.70;99.90
17565;DHT22;62994;52.126;5.596;2024-01-06T12:19:08;5.60;99.90
17565;DHT22;62994;52.126;5.596;2024-01-06T12:21:36;5.60;99.90
17565;DHT22;62994;52.126;5.596;2024-01-06T12:24:16;5.70;99.90
17565;DHT22;62994;52.126;5.596;2024-01-06T12:26:48;5.70;99.90
17565;DHT22;62994;52.126;5.596;2024-01-06T12:29:21;5.70;99.90
17565;DHT22;62994;52.126;5.596;2024-01-06T12:31:50;5.70;99.90
17565;DHT22;62994;52.126;5.596;2024-01-06T12:34:18;5.70;99.90
17565;DHT22;62994;52.126;5.596;2024-01-06T12:37:01;5.70;99.90
17565;DHT22;62994;52.126;5.596;2024-01-06T12:39:34;5.70;99.90
17565;DHT22;62994;52.126;5.596;2024-01-06T12:42:01;5.70;99.90
17565;DHT22;62994;52.126;5.596;2024-01-06T12:44:28;5.70;99.90
17565;DHT22;62994;52.126;5.596;2024-01-06T12:47:04;5.70;99.90
17565;DHT22;62994;52.126;5.596;2024-01-06T12:49:33;5.70;99.90
17565;DHT22;62994;52.126;5.596;2024-01-06T12:52:05;5.70;99.90
17565;DHT22;62994;52.126;5.596;2024-01-06T12:54:32;5.60;99.90
17565;DHT22;62994;52.126;5.596;2024-01-06T12:57:01;5.50;99.90
17565;DHT22;62994;52.126;5.596;2024-01-06T12:59:29;5.50;99.90
17565;DHT22;62994;52.126;5.596;2024-01-06T13:01:57;5.60;99.90
17565;DHT22;62994;52.126;5.596;2024-01-06T13:04:26;5.60;99.90
17565;DHT22;62994;52.126;5.596;2024-01-06T13:06:58;5.60;99.90
17565;DHT22;62994;52.126;5.596;2024-01-06T13:09:25;5.60;99.90
17565;DHT22;62994;52.126;5.596;2024-01-06T13:11:52;5.60;99.90
17565;DHT22;62994;52.126;5.596;2024-01-06T13:14:21;5.60;99.90
17565;DHT22;62994;52.126;5.596;2024-01-06T13:16:50;5.60;99.90
17565;DHT22;62994;52.126;5.596;2024-01-06T13:19:19;5.60;99.90
17565;DHT22;62994;52.126;5.596;2024-01-06T13:21:48;5.70;99.90
17565;DHT22;62994;52.126;5.596;2024-01-06T13:24:17;5.60;99.90
17565;DHT22;62994;52.126;5.596;2024-01-06T13:26:48;5.60;99.90
17565;DHT22;62994;52.126;5.596;2024-01-06T13:29:15;5.60;99.90
17565;DHT22;62994;52.126;5.596;2024-01-06T13:31:51;5.60;99.90
17565;DHT22;62994;52.126;5.596;2024-01-06T13:34:19;5.60;99.90
17565;DHT22;62994;52.126;5.596;2024-01-06T13:36:48;5.60;99.90
17565;DHT22;62994;52.126;5.596;2024-01-06T13:39:20;5.60;99.90
17565;DHT22;62994;52.126;5.596;2024-01-06T13:41:47;5.60;99.90
17565;DHT22;62994;52.126;5.596;2024-01-06T13:44:15;5.60;99.90
17565;DHT22;62994;52.126;5.596;2024-01-06T13:46:47;5.60;99.90
17565;DHT22;62994;52.126;5.596;2024-01-06T13:49:22;5.60;99.90
17565;DHT22;62994;52.126;5.596;2024-01-06T13:51:50;5.60;99.90
17565;DHT22;62994;52.126;5.596;2024-01-06T13:54:19;5.60;99.90
17565;DHT22;62994;52.126;5.596;2024-01-06T13:56:50;5.60;99.90
17565;DHT22;62994;52.126;5.596;2024-01-06T13:59:20;5.60;99.90
17565;DHT22;62994;52.126;5.596;2024-01-06T14:01:50;5.50;99.90
17565;DHT22;62994;52.126;5.596;2024-01-06T14:04:23;5.60;99.90
17565;DHT22;62994;52.126;5.596;2024-01-06T14:06:51;5.60;99.90
17565;DHT22;62994;52.126;5.596;2024-01-06T14:09:23;5.60;99.90
17565;DHT22;62994;52.126;5.596;2024-01-06T14:11:52;5.60;99.90
17565;DHT22;62994;52.126;5.596;2024-01-06T14:14:34;5.50;99.90
17565;DHT22;62994;52.126;5.596;2024-01-06T14:17:07;5.50;99.90
17565;DHT22;62994;52.126;5.596;2024-01-06T14:19:45;5.40;99.90
17565;DHT22;62994;52.126;5.596;2024-01-06T14:22:13;5.30;99.90
17565;DHT22;62994;52.126;5.596;2024-01-06T14:24:42;5.40;99.90
17565;DHT22;62994;52.126;5.596;2024-01-06T14:27:09;5.40;99.90
17565;DHT22;62994;52.126;5.596;2024-01-06T14:29:36;5.30;99.90
17565;DHT22;62994;52.126;5.596;2024-01-06T14:32:10;5.30;99.90
17565;DHT22;62994;52.126;5.596;2024-01-06T14:34:37;5.30;99.90
17565;DHT22;62994;52.126;5.596;2024-01-06T14:37:22;5.30;99.90
17565;DHT22;62994;52.126;5.596;2024-01-06T14:39:50;5.20;99.90
17565;DHT22;62994;52.126;5.596;2024-01-06T14:42:25;5.20;99.90
17565;DHT22;62994;52.126;5.596;2024-01-06T14:45:09;5.20;99.90
17565;DHT22;62994;52.126;5.596;2024-01-06T14:47:45;5.10;99.90
17565;DHT22;62994;52.126;5.596;2024-01-06T14:50:18;5.10;99.90
17565;DHT22;62994;52.126;5.596;2024-01-06T14:52:50;5.10;99.90
17565;DHT22;62994;52.126;5.596;2024-01-06T14:55:21;5.20;99.90
17565;DHT22;62994;52.126;5.596;2024-01-06T14:57:50;5.20;99.90
17565;DHT22;62994;52.126;5.596;2024-01-06T15:00:17;5.20;99.90
17565;DHT22;62994;52.126;5.596;2024-01-06T15:02:44;5.20;99.90
17565;DHT22;62994;52.126;5.596;2024-01-06T15:05:15;5.10;99.90
17565;DHT22;62994;52.126;5.596;2024-01-06T15:07:44;5.10;99.90
17565;DHT22;62994;52.126;5.596;2024-01-06T15:10:13;5.20;99.90
17565;DHT22;62994;52.126;5.596;2024-01-06T15:12:41;5.20;99.90
17565;DHT22;62994;52.126;5.596;2024-01-06T15:15:08;5.20;99.90
17565;DHT22;62994;52.126;5.596;2024-01-06T15:17:37;5.20;99.90
17565;DHT22;62994;52.126;5.596;2024-01-06T15:20:05;5.20;99.90
17565;DHT22;62994;52.126;5.596;2024-01-06T15:22:40;5.30;99.90
17565;DHT22;62994;52.126;5.596;2024-01-06T15:25:09;5.30;99.90
17565;DHT22;62994;52.126;5.596;2024-01-06T15:27:40;5.30;99.90
17565;DHT22;62994;52.126;5.596;2024-01-06T15:30:10;5.30;99.90
17565;DHT22;62994;52.126;5.596;2024-01-06T15:32:42;5.20;99.90
17565;DHT22;62994;52.126;5.596;2024-01-06T15:35:10;5.30;99.90
17565;DHT22;62994;52.126;5.596;2024-01-06T15:37:39;5.30;99.90
17565;DHT22;62994;52.126;5.596;2024-01-06T15:40:13;5.30;99.90
17565;DHT22;62994;52.126;5.596;2024-01-06T15:42:43;5.30;99.90
17565;DHT22;62994;52.126;5.596;2024-01-06T15:45:13;5.40;99.90
17565;DHT22;62994;52.126;5.596;2024-01-06T15:47:46;5.60;99.90
17565;DHT22;62994;52.126;5.596;2024-01-06T15:50:13;5.70;99.90
17565;DHT22;62994;52.126;5.596;2024-01-06T15:52:40;5.60;99.90
17565;DHT22;62994;52.126;5.596;2024-01-06T15:55:09;5.60;99.90
17565;DHT22;62994;52.126;5.596;2024-01-06T15:57:36;5.60;99.90
17565;DHT22;62994;52.126;5.596;2024-01-06T16:00:14;5.50;99.90
17565;DHT22;62994;52.126;5.596;2024-01-06T16:02:43;5.50;99.90